Time;durP1;ratioP1;P1;durP2;ratioP2;P2;SDS_P1;SDS_P2;PMS_P1;PMS_P2;Temp;Humidity;BMP_temperature;BMP_pressure;BME280_temperature;BME280_humidity;BME280_pressure;Samples;Min_cycle;Max_cycle;Signal;HPM_P1;HPM_P2
2023/06/22 00:00:46;;;;;;;12.50;11.50;;;23.60;33.60;;;;;;5030886;28;20422;-63
2023/06/22 00:03:12;;;;;;;13.27;12.07;;;23.60;33.70;;;;;;5030233;28;20427;-63
2023/06/22 00:05:38;;;;;;;13.33;12.43;;;23.60;34.00;;;;;;5030813;28;20588;-63
2023/06/22 00:08:07;;;;;;;11.77;10.93;;;23.60;34.40;;;;;;5030740;28;20267;-63
2023/06/22 00:10:32;;;;;;;13.20;12.27;;;23.60;34.40;;;;;;5030635;28;20287;-63
2023/06/22 00:12:58;;;;;;;13.33;12.40;;;23.50;34.50;;;;;;5030071;28;20495;-63
2023/06/22 00:15:24;;;;;;;13.63;12.27;;;23.50;34.70;;;;;;5038320;28;20176;-63
2023/06/22 00:17:50;;;;;;;11.80;11.00;;;23.50;34.80;;;;;;5050593;28;20175;-63
2023/06/22 00:20:17;;;;;;;11.43;10.70;;;23.50;35.00;;;;;;5050476;28;20271;-63
2023/06/22 00:22:44;;;;;;;12.80;11.60;;;23.50;34.80;;;;;;5049915;28;20454;-63
2023/06/22 00:25:11;;;;;;;13.00;12.03;;;23.50;34.90;;;;;;5050393;28;20422;-63
2023/06/22 00:27:37;;;;;;;13.20;11.90;;;23.50;35.00;;;;;;5050491;28;20421;-62
2023/06/22 00:30:03;;;;;;;12.77;11.97;;;23.40;35.10;;;;;;5050477;28;20418;-62
2023/06/22 00:32:29;;;;;;;13.07;12.07;;;23.40;35.10;;;;;;5049677;28;20298;-63
2023/06/22 00:34:55;;;;;;;13.13;12.23;;;23.40;35.10;;;;;;5050340;28;20521;-63
2023/06/22 00:37:25;;;;;;;13.20;12.40;;;23.40;35.20;;;;;;5050390;28;20229;-63
2023/06/22 00:39:51;;;;;;;12.40;11.50;;;23.40;35.40;;;;;;5050350;28;20188;-63
2023/06/22 00:42:17;;;;;;;12.60;11.80;;;23.30;35.50;;;;;;5051069;28;20910;-63
2023/06/22 00:44:44;;;;;;;13.30;12.50;;;23.30;35.70;;;;;;5050305;28;20434;-64
2023/06/22 00:47:12;;;;;;;12.93;12.03;;;23.30;35.70;;;;;;5050368;28;20516;-63
2023/06/22 00:49:38;;;;;;;13.63;12.73;;;23.20;35.90;;;;;;5050416;28;20422;-63
2023/06/22 00:52:09;;;;;;;13.30;12.13;;;23.20;36.20;;;;;;5049559;28;20466;-63
2023/06/22 00:54:36;;;;;;;13.10;12.10;;;23.20;36.20;;;;;;5050267;28;20429;-62
2023/06/22 00:57:02;;;;;;;13.90;12.90;;;23.20;36.10;;;;;;5050200;28;20430;-63
2023/06/22 00:59:28;;;;;;;12.97;12.17;;;23.20;36.30;;;;;;5053927;28;20422;-62
2023/06/22 01:01:54;;;;;;;14.33;13.17;;;23.20;36.20;;;;;;5053353;28;20418;-63
2023/06/22 01:04:24;;;;;;;11.50;10.73;;;23.20;36.00;;;;;;5054040;28;20192;-63
2023/06/22 01:07:05;;;;;;;13.70;12.70;;;23.20;36.30;;;;;;5053944;28;20526;-63
2023/06/22 01:09:35;;;;;;;14.53;13.20;;;23.20;36.70;;;;;;5054028;28;20422;-63
2023/06/22 01:12:04;;;;;;;13.03;12.13;;;23.20;36.40;;;;;;5053001;28;20552;-63
2023/06/22 01:14:43;;;;;;;13.97;13.07;;;23.20;36.30;;;;;;5053706;28;20456;-63
2023/06/22 01:20:34;;;;;;;14.03;12.73;;;23.00;36.90;;;;;;5055073;28;20393;-63
2023/06/22 01:23:07;;;;;;;13.90;12.60;;;22.90;37.30;;;;;;5052969;28;20973;-63
2023/06/22 01:25:47;;;;;;;13.47;12.50;;;22.90;37.20;;;;;;5053482;28;20410;-63
2023/06/22 01:28:42;;;;;;;13.53;12.53;;;22.90;37.40;;;;;;5053529;28;20421;-63
2023/06/22 01:31:10;;;;;;;14.27;13.17;;;22.90;37.70;;;;;;5052833;28;20473;-63
2023/06/22 01:33:40;;;;;;;13.23;12.03;;;22.80;38.30;;;;;;5053405;28;20949;-63
2023/06/22 01:36:07;;;;;;;13.87;12.67;;;22.80;37.60;;;;;;5053296;28;20461;-64
2023/06/22 01:38:33;;;;;;;13.90;12.70;;;22.80;37.60;;;;;;5053294;28;20505;-64
2023/06/22 01:41:00;;;;;;;13.27;12.20;;;22.90;37.90;;;;;;5053088;28;20802;-63
2023/06/22 01:43:27;;;;;;;13.30;12.20;;;22.90;37.80;;;;;;5052815;28;20421;-63
2023/06/22 01:45:54;;;;;;;14.10;13.10;;;22.90;37.70;;;;;;5053152;28;20423;-64
2023/06/22 01:48:21;;;;;;;13.80;12.83;;;22.90;37.70;;;;;;5053142;28;20969;-64
2023/06/22 01:50:47;;;;;;;12.57;11.70;;;22.90;37.90;;;;;;5053001;28;20450;-63
2023/06/22 01:53:13;;;;;;;14.10;13.10;;;22.90;37.80;;;;;;5052511;28;20792;-63
2023/06/22 01:55:38;;;;;;;13.60;12.80;;;22.90;37.90;;;;;;5052900;28;20425;-63
2023/06/22 01:58:04;;;;;;;13.77;12.83;;;22.90;37.70;;;;;;5052852;28;20183;-63
2023/06/22 02:00:35;;;;;;;15.83;14.30;;;22.80;37.90;;;;;;5052945;28;20239;-63
2023/06/22 02:03:13;;;;;;;14.40;13.10;;;22.80;38.20;;;;;;5052216;28;20175;-64
2023/06/22 02:06:03;;;;;;;14.13;13.33;;;22.70;39.20;;;;;;5052662;28;20449;-64
2023/06/22 02:08:46;;;;;;;14.90;13.70;;;22.60;39.30;;;;;;5052724;28;20506;-63
2023/06/22 02:11:14;;;;;;;14.50;13.40;;;22.60;39.00;;;;;;5051890;28;20496;-63
2023/06/22 02:13:42;;;;;;;15.00;14.03;;;22.60;39.30;;;;;;5052732;28;20419;-63
2023/06/22 02:16:12;;;;;;;13.67;12.57;;;22.50;40.40;;;;;;5052543;28;20418;-63
2023/06/22 02:18:40;;;;;;;14.50;13.60;;;22.50;39.60;;;;;;5052639;28;20450;-61
2023/06/22 02:21:05;;;;;;;14.73;13.57;;;22.50;39.50;;;;;;5052053;28;20492;-61
2023/06/22 02:23:34;;;;;;;15.90;14.90;;;22.50;40.50;;;;;;5052281;28;20821;-62
2023/06/22 02:26:00;;;;;;;14.20;13.30;;;22.50;39.70;;;;;;5052338;28;20184;-62
2023/06/22 02:28:26;;;;;;;14.17;13.27;;;22.50;39.40;;;;;;5052535;28;20923;-62
2023/06/22 02:30:51;;;;;;;13.00;12.10;;;22.50;39.60;;;;;;5052187;28;20518;-62
2023/06/22 02:33:17;;;;;;;13.17;12.27;;;22.60;39.70;;;;;;5051709;28;20233;-61
2023/06/22 02:35:47;;;;;;;13.97;13.13;;;22.60;39.40;;;;;;5052300;28;20541;-61
2023/06/22 02:38:13;;;;;;;15.97;13.27;;;22.60;39.30;;;;;;5052342;28;20691;-60
2023/06/22 02:40:39;;;;;;;14.57;13.50;;;22.60;39.30;;;;;;5052127;28;20407;-61
2023/06/22 02:43:04;;;;;;;13.33;12.50;;;22.60;39.40;;;;;;5051384;28;20176;-60
2023/06/22 02:45:30;;;;;;;14.17;13.27;;;22.50;39.50;;;;;;5052061;28;20172;-61
2023/06/22 02:47:56;;;;;;;14.33;13.43;;;22.60;39.50;;;;;;5052001;28;20199;-60
2023/06/22 02:50:22;;;;;;;14.67;13.53;;;22.60;39.50;;;;;;5052168;28;20179;-60
2023/06/22 02:52:47;;;;;;;15.63;14.73;;;22.60;39.40;;;;;;5051260;28;20462;-60
2023/06/22 02:55:13;;;;;;;13.80;13.00;;;22.60;39.50;;;;;;5051685;28;20179;-61
2023/06/22 02:57:43;;;;;;;16.30;15.10;;;22.60;39.40;;;;;;5051805;28;20180;-63
2023/06/22 03:00:17;;;;;;;14.30;13.40;;;22.60;39.60;;;;;;5051927;28;20183;-63
2023/06/22 03:02:47;;;;;;;16.13;14.50;;;22.50;39.60;;;;;;5051276;28;20427;-61
2023/06/22 03:05:14;;;;;;;14.33;13.33;;;22.50;39.70;;;;;;5051711;28;20442;-61
2023/06/22 03:07:43;;;;;;;15.00;14.00;;;22.50;39.80;;;;;;5051589;28;20422;-61
2023/06/22 03:10:13;;;;;;;13.50;12.60;;;22.50;39.60;;;;;;5051415;28;20911;-60
2023/06/22 03:12:39;;;;;;;16.63;15.43;;;22.50;39.70;;;;;;5050836;28;20462;-61
2023/06/22 03:15:06;;;;;;;14.13;13.23;;;22.50;39.40;;;;;;5051434;28;20452;-60
2023/06/22 03:17:33;;;;;;;14.23;13.20;;;22.50;39.50;;;;;;5051411;28;20836;-60
2023/06/22 03:19:58;;;;;;;15.37;14.40;;;22.50;39.80;;;;;;5050987;28;20887;-60
2023/06/22 03:22:24;;;;;;;15.00;14.00;;;22.40;39.80;;;;;;5050593;28;20469;-61
2023/06/22 03:24:50;;;;;;;16.57;15.27;;;22.40;40.20;;;;;;5051184;28;20184;-61
2023/06/22 03:27:15;;;;;;;16.37;15.20;;;22.40;40.20;;;;;;5051283;28;20270;-61
2023/06/22 03:29:41;;;;;;;15.40;14.50;;;22.40;40.00;;;;;;5051289;28;20179;-61
2023/06/22 03:32:07;;;;;;;15.80;14.80;;;22.30;39.80;;;;;;5050542;28;20555;-61
2023/06/22 03:34:38;;;;;;;14.43;13.63;;;22.30;39.50;;;;;;5051178;28;20521;-61
2023/06/22 03:37:04;;;;;;;15.30;14.20;;;22.40;39.60;;;;;;5051134;28;20625;-60
2023/06/22 03:39:31;;;;;;;15.03;13.83;;;22.30;39.70;;;;;;5051064;28;20450;-60
2023/06/22 03:41:56;;;;;;;14.33;13.37;;;22.30;39.70;;;;;;5050245;28;20322;-60
2023/06/22 03:44:22;;;;;;;14.10;13.23;;;22.30;39.90;;;;;;5050980;28;20882;-63
2023/06/22 03:46:47;;;;;;;16.70;15.60;;;22.20;39.70;;;;;;5050971;28;20187;-63
2023/06/22 03:49:13;;;;;;;15.90;14.90;;;22.30;39.90;;;;;;5050957;28;20183;-63
2023/06/22 03:51:39;;;;;;;16.60;15.60;;;22.20;40.00;;;;;;5050171;28;20289;-63
2023/06/22 03:54:04;;;;;;;13.37;12.53;;;22.20;40.00;;;;;;5050743;28;20179;-62
2023/06/22 03:56:31;;;;;;;14.27;13.00;;;22.20;39.70;;;;;;5050881;28;20649;-62
2023/06/22 03:58:57;;;;;;;14.40;13.10;;;22.20;39.80;;;;;;5050732;28;20267;-63
2023/06/22 04:01:22;;;;;;;14.13;13.30;;;22.20;39.80;;;;;;5050235;28;20498;-63
2023/06/22 04:03:49;;;;;;;14.93;14.03;;;22.20;39.90;;;;;;5050863;28;20230;-62
2023/06/22 04:06:15;;;;;;;15.30;14.20;;;22.20;39.90;;;;;;5050613;28;20208;-62
2023/06/22 04:08:40;;;;;;;14.40;13.40;;;22.20;40.00;;;;;;5050643;28;20919;-63
2023/06/22 04:11:06;;;;;;;16.90;15.80;;;22.20;39.90;;;;;;5049982;28;20211;-63
2023/06/22 04:13:32;;;;;;;15.20;14.30;;;22.20;40.00;;;;;;5051726;28;20176;-63
2023/06/22 04:15:58;;;;;;;15.30;14.33;;;22.20;40.00;;;;;;5050477;28;20583;-63
2023/06/22 04:18:23;;;;;;;15.93;14.60;;;22.20;40.10;;;;;;5050634;28;20172;-61
2023/06/22 04:20:49;;;;;;;16.00;15.00;;;22.20;39.90;;;;;;5051702;28;20180;-61
2023/06/22 04:23:14;;;;;;;15.80;14.73;;;22.20;40.10;;;;;;5050000;28;20551;-49
2023/06/22 04:25:40;;;;;;;16.57;15.57;;;22.20;40.10;;;;;;5050540;28;20694;-57
2023/06/22 04:28:12;;;;;;;16.33;15.33;;;22.20;40.20;;;;;;5050440;28;20350;-58
2023/06/22 04:30:45;;;;;;;16.33;15.20;;;22.20;40.20;;;;;;5050427;28;20645;-59
2023/06/22 04:33:14;;;;;;;18.37;17.17;;;22.20;40.20;;;;;;5052500;28;20911;-59
2023/06/22 04:35:43;;;;;;;15.70;14.70;;;22.20;40.00;;;;;;5054576;28;20418;-58
2023/06/22 04:38:09;;;;;;;16.67;15.77;;;22.20;40.00;;;;;;5054335;28;20471;-59
2023/06/22 04:40:35;;;;;;;19.90;17.97;;;22.30;40.10;;;;;;5054420;28;20509;-59
2023/06/22 04:43:02;;;;;;;17.90;16.60;;;22.20;39.80;;;;;;5053840;28;20175;-59
2023/06/22 04:45:31;;;;;;;16.33;15.23;;;22.10;40.50;;;;;;5054303;28;20559;-59
2023/06/22 04:47:57;;;;;;;18.23;16.33;;;22.00;41.50;;;;;;5054220;28;20426;-60
2023/06/22 04:50:23;;;;;;;16.27;15.07;;;22.00;41.20;;;;;;5054296;28;20426;-59
2023/06/22 04:52:49;;;;;;;17.10;15.90;;;22.00;41.20;;;;;;5053573;28;20672;-58
2023/06/22 04:55:19;;;;;;;18.43;16.93;;;22.10;41.30;;;;;;5054008;28;20509;-58
2023/06/22 04:57:49;;;;;;;17.60;16.43;;;22.10;41.20;;;;;;5054091;28;20414;-58
2023/06/22 05:00:19;;;;;;;18.30;17.10;;;22.10;41.30;;;;;;5055259;28;20410;-58
2023/06/22 05:02:46;;;;;;;17.87;16.67;;;22.20;41.10;;;;;;5053408;28;20419;-58
2023/06/22 05:05:15;;;;;;;17.27;16.20;;;22.20;40.60;;;;;;5053896;28;20476;-59
2023/06/22 05:07:48;;;;;;;16.07;15.10;;;22.20;40.50;;;;;;5053819;28;20487;-58
2023/06/22 05:10:14;;;;;;;15.70;14.60;;;22.30;40.30;;;;;;5053744;28;20422;-58
2023/06/22 05:12:41;;;;;;;16.47;15.33;;;22.30;40.30;;;;;;5053132;28;20862;-58
2023/06/22 05:15:08;;;;;;;17.70;16.57;;;22.30;40.40;;;;;;5053728;28;20453;-59
2023/06/22 05:17:34;;;;;;;16.60;15.53;;;22.30;40.50;;;;;;5054000;28;20413;-60
2023/06/22 05:20:01;;;;;;;16.93;15.70;;;22.30;40.30;;;;;;5053623;28;20933;-60
2023/06/22 05:22:26;;;;;;;17.17;15.53;;;22.40;40.30;;;;;;5053012;28;20505;-60
2023/06/22 05:24:52;;;;;;;18.10;16.60;;;22.30;39.90;;;;;;5053485;28;20426;-60
2023/06/22 05:27:17;;;;;;;17.23;15.93;;;22.40;40.20;;;;;;5053501;28;20233;-60
2023/06/22 05:29:43;;;;;;;16.00;14.80;;;22.40;40.00;;;;;;5053225;28;20183;-60
2023/06/22 05:32:09;;;;;;;16.23;15.10;;;22.40;39.30;;;;;;5052852;28;20715;-60
2023/06/22 05:34:35;;;;;;;15.47;14.50;;;22.40;39.40;;;;;;5053412;28;20246;-60
2023/06/22 05:37:01;;;;;;;17.13;15.90;;;22.50;39.50;;;;;;5053350;28;20421;-60
2023/06/22 05:39:27;;;;;;;15.60;14.60;;;22.50;39.10;;;;;;5052713;28;20184;-59
2023/06/22 05:41:52;;;;;;;15.60;14.50;;;22.50;38.80;;;;;;5052748;28;20515;-59
2023/06/22 05:44:18;;;;;;;15.30;14.40;;;22.60;38.60;;;;;;5052611;28;20708;-59
2023/06/22 05:46:46;;;;;;;16.50;15.20;;;22.60;38.50;;;;;;5053876;28;20268;-59
2023/06/22 05:49:15;;;;;;;18.00;16.10;;;22.60;38.60;;;;;;5052796;28;20545;-61
2023/06/22 05:51:41;;;;;;;15.83;14.70;;;22.60;38.40;;;;;;5052393;28;20458;-60
2023/06/22 05:54:08;;;;;;;15.73;14.37;;;22.60;38.40;;;;;;5047068;28;20414;-60
2023/06/22 05:56:34;;;;;;;16.20;15.20;;;22.60;38.50;;;;;;5052059;28;20441;-59
2023/06/22 05:59:00;;;;;;;16.93;15.70;;;22.60;38.10;;;;;;5052003;28;20501;-60
2023/06/22 06:01:25;;;;;;;17.23;16.13;;;22.70;38.20;;;;;;5051345;28;20813;-60
2023/06/22 06:03:52;;;;;;;17.07;15.67;;;22.70;37.50;;;;;;5051853;28;20245;-60
2023/06/22 06:06:21;;;;;;;16.30;15.30;;;22.70;37.60;;;;;;5051885;28;20180;-60
2023/06/22 06:08:46;;;;;;;15.63;14.70;;;22.70;37.50;;;;;;5051797;28;21013;-60
2023/06/22 06:11:12;;;;;;;16.03;14.90;;;22.70;37.40;;;;;;5050605;28;20576;-60
2023/06/22 06:13:38;;;;;;;15.87;14.77;;;22.80;37.30;;;;;;5051793;28;20203;-61
2023/06/22 06:16:04;;;;;;;16.57;15.57;;;22.80;37.20;;;;;;5051656;28;20586;-61
2023/06/22 06:18:30;;;;;;;15.60;14.70;;;22.80;37.00;;;;;;5051771;28;20629;-61
2023/06/22 06:20:56;;;;;;;14.60;13.80;;;22.80;36.90;;;;;;5051092;28;20432;-60
2023/06/22 06:23:21;;;;;;;15.80;14.90;;;22.80;36.90;;;;;;5051376;28;20242;-61
2023/06/22 06:25:47;;;;;;;15.30;14.30;;;22.80;36.60;;;;;;5051558;28;20214;-61
2023/06/22 06:28:12;;;;;;;14.80;13.90;;;22.80;36.50;;;;;;5051412;28;20179;-61
2023/06/22 06:30:38;;;;;;;15.93;14.87;;;22.90;36.40;;;;;;5051069;28;20180;-61
2023/06/22 06:33:08;;;;;;;15.77;14.60;;;23.00;36.00;;;;;;5050545;28;20222;-60
2023/06/22 06:35:34;;;;;;;16.50;14.97;;;23.00;35.90;;;;;;5051095;28;20176;-60
2023/06/22 06:38:00;;;;;;;17.80;16.30;;;23.00;35.70;;;;;;5051280;28;20418;-59
2023/06/22 06:40:26;;;;;;;18.37;17.27;;;23.10;35.50;;;;;;5051244;28;20472;-59
2023/06/22 06:42:51;;;;;;;15.97;15.17;;;23.10;35.10;;;;;;5050182;28;20232;-59
2023/06/22 06:45:22;;;;;;;16.20;15.10;;;23.10;35.10;;;;;;5051598;28;20191;-59
2023/06/22 06:47:48;;;;;;;15.03;14.13;;;23.20;35.20;;;;;;5051874;28;20267;-58
2023/06/22 06:50:14;;;;;;;15.23;14.43;;;23.20;35.10;;;;;;5051781;28;20458;-59
2023/06/22 06:52:40;;;;;;;15.30;14.30;;;23.20;34.50;;;;;;5051256;28;20308;-57
2023/06/22 06:55:09;;;;;;;14.67;13.87;;;23.30;34.40;;;;;;5050854;28;20415;-56
2023/06/22 06:57:36;;;;;;;15.50;14.50;;;23.30;34.40;;;;;;5051061;28;20423;-58
2023/06/22 07:00:07;;;;;;;15.67;14.77;;;23.30;34.50;;;;;;5050249;28;20848;-57
2023/06/22 07:02:33;;;;;;;14.47;13.70;;;23.30;33.20;;;;;;5049300;28;20509;-56
2023/06/22 07:04:58;;;;;;;15.30;14.47;;;23.40;33.70;;;;;;5050029;28;20506;-57
2023/06/22 07:07:24;;;;;;;16.07;14.87;;;23.40;33.10;;;;;;5050549;28;20180;-56
2023/06/22 07:09:50;;;;;;;16.03;14.80;;;23.60;33.00;;;;;;5050576;28;20183;-56
2023/06/22 07:12:15;;;;;;;16.10;15.07;;;23.60;33.00;;;;;;5033074;28;20219;-57
2023/06/22 07:14:41;;;;;;;16.23;14.97;;;23.60;33.00;;;;;;5051198;28;20226;-56
2023/06/22 07:17:07;;;;;;;16.10;15.20;;;23.70;33.10;;;;;;5052621;28;20184;-57
2023/06/22 07:19:33;;;;;;;16.43;15.53;;;23.70;33.10;;;;;;5051544;28;20583;-57
2023/06/22 07:21:59;;;;;;;16.03;15.03;;;23.80;32.50;;;;;;5050842;28;20192;-58
2023/06/22 07:24:24;;;;;;;15.17;14.17;;;24.00;30.90;;;;;;5051494;28;20187;-57
2023/06/22 07:26:51;;;;;;;17.50;16.40;;;24.00;31.70;;;;;;5051445;28;20518;-57
2023/06/22 07:29:21;;;;;;;16.40;15.30;;;24.00;31.40;;;;;;5051363;28;20543;-58
2023/06/22 07:31:47;;;;;;;15.63;14.53;;;24.00;31.10;;;;;;5050451;28;20466;-57
2023/06/22 07:34:13;;;;;;;17.10;15.47;;;24.10;31.30;;;;;;5051182;28;20411;-58
2023/06/22 07:36:39;;;;;;;15.57;14.77;;;24.10;31.20;;;;;;5050860;28;20427;-58
2023/06/22 07:39:05;;;;;;;15.73;14.53;;;24.10;31.30;;;;;;5051185;28;20422;-56
2023/06/22 07:41:31;;;;;;;16.13;15.13;;;24.20;31.10;;;;;;5050297;28;20183;-55
2023/06/22 07:43:56;;;;;;;15.07;14.17;;;24.20;30.20;;;;;;5050749;28;20215;-57
2023/06/22 07:46:23;;;;;;;15.17;14.47;;;24.30;29.90;;;;;;5052227;28;20500;-58
2023/06/22 07:48:49;;;;;;;16.17;15.07;;;24.30;30.30;;;;;;5050848;28;20184;-57
2023/06/22 07:51:14;;;;;;;16.13;15.10;;;24.30;30.30;;;;;;5050130;28;20470;-56
2023/06/22 07:53:44;;;;;;;16.10;15.00;;;24.40;30.60;;;;;;5051122;28;20229;-57
2023/06/22 07:56:13;;;;;;;16.70;15.50;;;24.50;30.00;;;;;;5050607;28;20176;-58
2023/06/22 07:58:39;;;;;;;17.07;15.97;;;24.60;29.90;;;;;;5050700;28;20471;-57
2023/06/22 08:01:05;;;;;;;15.70;14.90;;;24.60;30.00;;;;;;5050191;28;20852;-56
2023/06/22 08:03:32;;;;;;;16.20;15.10;;;24.60;30.00;;;;;;5050458;28;20443;-56
2023/06/22 08:05:58;;;;;;;16.73;15.70;;;24.60;30.30;;;;;;5050591;28;20426;-58
2023/06/22 08:08:24;;;;;;;15.97;14.70;;;24.70;29.80;;;;;;5050594;28;20425;-55
2023/06/22 08:10:49;;;;;;;16.20;15.30;;;24.70;29.40;;;;;;5051652;28;20188;-56
2023/06/22 08:13:15;;;;;;;15.97;14.50;;;24.70;29.50;;;;;;5049994;28;20528;-57
2023/06/22 08:15:41;;;;;;;16.50;15.50;;;24.70;29.60;;;;;;5050513;28;20223;-56
2023/06/22 08:18:06;;;;;;;16.60;15.50;;;24.70;29.50;;;;;;5050317;28;20180;-56
2023/06/22 08:20:32;;;;;;;15.60;14.70;;;24.80;29.10;;;;;;5050357;28;20212;-57
2023/06/22 08:23:00;;;;;;;14.50;13.53;;;24.80;28.80;;;;;;5049722;28;20179;-55
2023/06/22 08:25:26;;;;;;;15.80;14.80;;;24.80;29.00;;;;;;5050646;28;20230;-57
2023/06/22 08:27:51;;;;;;;15.23;14.13;;;24.80;28.70;;;;;;5050511;28;20767;-57
2023/06/22 08:30:18;;;;;;;16.23;15.00;;;24.90;28.50;;;;;;5050879;28;20274;-57
2023/06/22 08:32:44;;;;;;;16.13;15.03;;;24.90;28.30;;;;;;5049711;28;20211;-58
2023/06/22 08:35:10;;;;;;;15.40;14.33;;;24.90;28.30;;;;;;5051896;28;20974;-56
2023/06/22 08:37:36;;;;;;;16.50;14.83;;;25.00;27.80;;;;;;5049961;28;20503;-56
2023/06/22 08:40:05;;;;;;;15.77;14.70;;;25.00;27.90;;;;;;5050786;28;20655;-57
2023/06/22 08:42:31;;;;;;;16.40;15.30;;;25.10;27.90;;;;;;5050107;28;20437;-57
2023/06/22 08:44:57;;;;;;;14.03;13.13;;;25.10;27.60;;;;;;5050614;28;20418;-57
2023/06/22 08:47:22;;;;;;;14.83;13.73;;;25.10;27.80;;;;;;5050424;28;20414;-57
2023/06/22 08:49:48;;;;;;;15.00;13.90;;;25.20;27.30;;;;;;5050784;28;20184;-57
2023/06/22 08:52:14;;;;;;;13.67;12.87;;;25.30;27.10;;;;;;5050022;28;20212;-58
2023/06/22 08:54:40;;;;;;;13.87;13.17;;;25.50;26.20;;;;;;5050377;28;20429;-58
2023/06/22 08:57:06;;;;;;;15.40;14.07;;;25.60;25.80;;;;;;5050460;28;20267;-57
2023/06/22 08:59:32;;;;;;;15.10;14.03;;;25.80;25.50;;;;;;5050393;28;20676;-56
2023/06/22 09:01:58;;;;;;;14.50;13.37;;;25.80;25.20;;;;;;5049522;28;20461;-57
2023/06/22 09:04:24;;;;;;;14.60;13.70;;;25.90;25.00;;;;;;5050162;28;20270;-56
2023/06/22 09:06:52;;;;;;;15.17;14.00;;;26.10;24.70;;;;;;5050520;28;20180;-57
2023/06/22 09:09:18;;;;;;;14.17;13.47;;;26.10;25.00;;;;;;5050299;28;20510;-58
2023/06/22 09:11:44;;;;;;;14.50;13.70;;;26.20;24.40;;;;;;5050843;28;21037;-58
2023/06/22 09:14:10;;;;;;;14.37;13.37;;;26.30;23.60;;;;;;5050148;28;20552;-58
2023/06/22 09:16:36;;;;;;;14.30;13.50;;;26.40;23.50;;;;;;5050282;28;20407;-57
2023/06/22 09:19:02;;;;;;;14.10;13.20;;;26.50;23.30;;;;;;5051581;28;20414;-60
2023/06/22 09:21:28;;;;;;;15.50;14.47;;;26.50;23.10;;;;;;5053263;28;20629;-61
2023/06/22 09:23:54;;;;;;;16.03;14.87;;;26.70;23.10;;;;;;5053471;28;20186;-60
2023/06/22 09:26:23;;;;;;;15.40;14.20;;;26.80;22.60;;;;;;5053069;28;20415;-59
2023/06/22 09:28:50;;;;;;;15.27;14.37;;;26.80;22.60;;;;;;5050822;28;20192;-60
2023/06/22 09:31:16;;;;;;;13.70;12.70;;;26.90;22.30;;;;;;5050473;28;20527;-61
2023/06/22 09:33:42;;;;;;;15.20;14.10;;;27.00;22.20;;;;;;5051365;28;20184;-61
2023/06/22 09:36:08;;;;;;;15.60;14.50;;;27.20;21.30;;;;;;5051364;28;20791;-59
2023/06/22 09:38:38;;;;;;;14.00;13.07;;;27.20;21.00;;;;;;5051836;28;20418;-59
2023/06/22 09:41:04;;;;;;;15.33;14.10;;;27.20;21.60;;;;;;5052107;28;20418;-59
2023/06/22 09:43:31;;;;;;;14.83;13.87;;;27.10;21.90;;;;;;5053104;28;20910;-58
2023/06/22 09:45:57;;;;;;;15.20;14.20;;;27.10;21.90;;;;;;5052427;28;20417;-58
2023/06/22 09:48:23;;;;;;;16.30;14.90;;;27.40;20.90;;;;;;5052847;28;20899;-59
2023/06/22 09:50:49;;;;;;;14.43;13.53;;;27.50;20.50;;;;;;5052948;28;20206;-59
2023/06/22 09:53:14;;;;;;;14.37;13.47;;;27.60;21.00;;;;;;5052394;28;20180;-58
2023/06/22 09:55:40;;;;;;;14.93;13.47;;;27.70;20.20;;;;;;5052910;28;20176;-59
2023/06/22 09:58:05;;;;;;;15.70;13.87;;;27.80;20.40;;;;;;5052756;28;20270;-59
2023/06/22 10:00:31;;;;;;;20.03;14.43;;;28.00;19.80;;;;;;5054141;28;20210;-59
2023/06/22 10:02:57;;;;;;;14.60;13.43;;;28.20;19.20;;;;;;5052143;28;20239;-58
2023/06/22 10:05:23;;;;;;;15.33;14.10;;;28.20;19.40;;;;;;5052777;28;20636;-58
2023/06/22 10:07:49;;;;;;;13.60;12.50;;;28.20;19.00;;;;;;5052746;28;20441;-58
2023/06/22 10:10:15;;;;;;;13.43;12.53;;;28.30;19.10;;;;;;5052549;28;20184;-60
2023/06/22 10:12:54;;;;;;;14.60;13.40;;;28.40;18.60;;;;;;5052040;28;20212;-61
2023/06/22 10:15:21;;;;;;;15.57;14.17;;;28.40;18.50;;;;;;5052603;28;20180;-59
2023/06/22 10:17:47;;;;;;;15.13;13.83;;;28.50;18.30;;;;;;5052453;28;20501;-60
2023/06/22 10:20:13;;;;;;;14.97;13.97;;;28.40;19.10;;;;;;5052454;28;20418;-60
2023/06/22 10:22:44;;;;;;;15.23;14.23;;;28.40;19.00;;;;;;5052193;28;20454;-61
2023/06/22 10:25:11;;;;;;;14.90;14.00;;;28.30;19.10;;;;;;5052323;28;20510;-60
2023/06/22 10:27:39;;;;;;;15.63;14.70;;;28.30;19.60;;;;;;5052380;28;20422;-61
2023/06/22 10:30:09;;;;;;;15.80;14.80;;;28.30;19.90;;;;;;5052323;28;20430;-60
2023/06/22 10:32:37;;;;;;;14.40;13.60;;;28.30;20.10;;;;;;5051737;28;20454;-60
2023/06/22 10:35:03;;;;;;;14.90;14.10;;;28.30;19.10;;;;;;5052231;28;20414;-60
2023/06/22 10:37:28;;;;;;;14.63;13.87;;;28.50;18.30;;;;;;5052243;28;20418;-60
2023/06/22 10:39:54;;;;;;;15.17;14.07;;;28.80;18.40;;;;;;5052083;28;20659;-60
2023/06/22 10:42:20;;;;;;;15.90;14.40;;;28.90;17.80;;;;;;5051649;28;20538;-61
2023/06/22 10:44:46;;;;;;;14.57;13.57;;;29.00;17.80;;;;;;5052012;28;20215;-61
2023/06/22 10:47:11;;;;;;;15.80;14.60;;;29.10;17.30;;;;;;5051916;28;20591;-61
2023/06/22 10:49:41;;;;;;;15.67;14.40;;;29.10;17.80;;;;;;5051909;28;20525;-60
2023/06/22 10:52:08;;;;;;;15.37;14.10;;;28.90;18.40;;;;;;5051094;28;20216;-61
2023/06/22 10:54:35;;;;;;;13.93;13.13;;;28.90;18.30;;;;;;5051900;28;20791;-61
2023/06/22 10:57:01;;;;;;;18.53;13.53;;;28.90;18.00;;;;;;5051726;28;20505;-61
2023/06/22 10:59:28;;;;;;;15.43;14.33;;;28.80;18.40;;;;;;5051763;28;20518;-61
2023/06/22 11:01:54;;;;;;;16.33;14.83;;;28.70;18.40;;;;;;5052314;28;20414;-60
2023/06/22 11:04:20;;;;;;;14.77;13.67;;;28.60;18.30;;;;;;5051657;28;20922;-59
2023/06/22 11:06:46;;;;;;;14.50;13.20;;;28.50;18.30;;;;;;5051657;28;20427;-59
2023/06/22 11:09:11;;;;;;;17.33;13.70;;;28.50;18.30;;;;;;5052678;28;20188;-59
2023/06/22 11:11:37;;;;;;;14.93;13.90;;;28.70;18.00;;;;;;5050835;28;20295;-58
2023/06/22 11:14:03;;;;;;;16.10;14.70;;;28.80;17.20;;;;;;5051357;28;20522;-61
2023/06/22 11:16:28;;;;;;;15.70;14.30;;;28.80;17.30;;;;;;5051589;28;20229;-61
2023/06/22 11:18:54;;;;;;;16.80;15.30;;;28.80;18.40;;;;;;5051411;28;20579;-61
2023/06/22 11:21:19;;;;;;;15.20;14.13;;;28.80;18.20;;;;;;5050836;28;20629;-60
2023/06/22 11:23:45;;;;;;;16.57;15.13;;;28.80;18.20;;;;;;5051356;28;20180;-60
2023/06/22 11:26:11;;;;;;;15.23;14.20;;;28.90;18.30;;;;;;5051164;28;20179;-59
2023/06/22 11:28:36;;;;;;;15.30;14.10;;;28.90;18.50;;;;;;5050934;28;20184;-60
2023/06/22 11:31:03;;;;;;;15.97;14.63;;;28.80;17.80;;;;;;5051237;28;20176;-60
2023/06/22 11:33:28;;;;;;;14.57;13.47;;;28.80;18.30;;;;;;5051094;28;20274;-60
2023/06/22 11:35:56;;;;;;;16.53;14.93;;;28.80;18.40;;;;;;5051131;28;20556;-60
2023/06/22 11:38:21;;;;;;;15.20;14.07;;;28.70;18.20;;;;;;5051368;28;20180;-58
2023/06/22 11:40:47;;;;;;;14.70;13.73;;;28.70;18.00;;;;;;5050659;28;20425;-59
2023/06/22 11:43:14;;;;;;;15.40;14.30;;;28.80;18.40;;;;;;5050277;28;20172;-59
2023/06/22 11:45:40;;;;;;;14.87;13.87;;;28.70;19.10;;;;;;5034751;28;20547;-59
2023/06/22 11:48:06;;;;;;;16.10;12.90;;;28.70;18.40;;;;;;5052264;28;20508;-59
2023/06/22 11:50:35;;;;;;;15.23;14.13;;;28.80;18.40;;;;;;5051088;28;20171;-61
2023/06/22 11:53:02;;;;;;;15.97;14.10;;;28.90;18.60;;;;;;5050390;28;20484;-60
2023/06/22 11:55:28;;;;;;;42.30;16.00;;;28.80;19.00;;;;;;5051046;28;20414;-61
2023/06/22 11:57:58;;;;;;;16.07;14.40;;;28.70;18.70;;;;;;5045984;28;20978;-60
2023/06/22 12:00:24;;;;;;;13.97;13.17;;;28.60;19.20;;;;;;5047652;28;20233;-61
2023/06/22 12:02:53;;;;;;;15.13;13.90;;;28.60;19.20;;;;;;5046583;28;20431;-61
2023/06/22 12:05:22;;;;;;;16.33;15.23;;;28.50;19.50;;;;;;5047098;28;20426;-61
2023/06/22 12:07:48;;;;;;;14.47;13.50;;;28.40;20.30;;;;;;5047596;28;20524;-60
2023/06/22 12:10:14;;;;;;;14.20;13.20;;;28.40;19.10;;;;;;5047425;28;20426;-59
2023/06/22 12:12:40;;;;;;;14.27;13.33;;;28.50;18.30;;;;;;5046805;28;20472;-60
2023/06/22 12:15:07;;;;;;;14.87;13.73;;;28.60;18.30;;;;;;5047457;28;20523;-59
2023/06/22 12:17:33;;;;;;;14.00;13.00;;;28.60;18.80;;;;;;5047126;28;20490;-59
2023/06/22 12:19:59;;;;;;;16.30;14.87;;;28.70;19.20;;;;;;5047432;28;20415;-59
2023/06/22 12:22:24;;;;;;;14.40;13.40;;;28.80;19.50;;;;;;5046879;28;20423;-59
2023/06/22 12:24:50;;;;;;;15.57;14.17;;;28.70;19.80;;;;;;5047373;28;20676;-59
2023/06/22 12:27:18;;;;;;;13.90;13.00;;;28.60;20.30;;;;;;5047339;28;20188;-59
2023/06/22 12:29:47;;;;;;;15.27;14.27;;;28.60;20.70;;;;;;5032336;28;20180;-59